Galesburg, IL

12:52 PM CST on March 04, 2015 (GMT -0600)
Quad-City International | Change Station
CLOSE
Current Station
Airport
Location: Moline,
Elevation: 594 ft
Nearby Weather Stations

Elev 594 ft 41.45 °N, 90.51 °W | Updated 1 hour ago

Partly Cloudy
Partly Cloudy
16 °F
Feels Like 1 °F
N
15
Wind Variable Wind from NW

Today
High -- | Low -- °F
--% Chance of Precip.
Yesterday
High -- | Low -- °F
Precip. -- in
6:31 AM 5:55 PM
Waxing Gibbous, 99% visible
Pressure 30.30 in
Visibility 10.0 miles
Clouds Clear
Windchill 1 °F
Dew Point 4 °F
Humidity 59%
Rainfall 0.00 in
Snow Depth Not available.
UV 5 out of 12
Pollen .50 out of 12
Air Quality Not available.
Flu Activity Not available.
METAR KMLI 041752Z 31013KT 10SM CLR M09/M16 A3026 RMK AO2 SLP258 T10891156 11089 21117 51016 $

More Conditions Fewer Conditions

Pressure 30.30 in
Visibility 10.0 miles
Clouds Clear
Windchill 1 °F
Dew Point 4 °F
Humidity 59%
Rainfall 0.00 in
Snow Depth Not available.
UV 5 out of 12
Pollen .50 out of 12
Air Quality Not available.
Flu Activity Not available.
METAR KMLI 041752Z 31013KT 10SM CLR M09/M16 A3026 RMK AO2 SLP258 T10891156 11089 21117 51016 $

More Conditions Fewer Conditions

10-Day Weather Forecast

Almanac

Astronomy

Mar. 04, 2015 Rise Set
Actual Time
Civil Twilight
Nautical Twilight
Astronomical Twilight
Moon
Length of Visible Light
Length of Day
Tomorrow will be .
, % of the Moon is Illuminated

Today's Extremes

State Highs State Lows

Community

WunderPhotos

Upload Photos

1,802,536 photos uploaded!

WunderBlogs® & News

Nearby

Air Quality

  Air Quality AQ Index Pollutant
Not available.

Snow Depth

Station Depth Elevation

Earthquake Activity

City Distance Mag. Time & Date
Minimum magnitude displayed is 2.5.

Coastal Water Temperatures

Place Temperature

Nearby Weather Stations